createdAt,value
2023-02-08T00:01:23.692Z,-1.10
2023-02-08T00:03:53.683Z,-1.10
2023-02-08T00:06:22.177Z,-1.20
2023-02-08T00:08:50.568Z,-1.30
2023-02-08T00:11:18.865Z,-1.30
2023-02-08T00:13:47.170Z,-1.30
2023-02-08T00:16:16.475Z,-1.30
2023-02-08T00:18:44.742Z,-1.30
2023-02-08T00:21:17.815Z,-1.40
2023-02-08T00:23:46.880Z,-1.40
2023-02-08T00:26:15.942Z,-1.40
2023-02-08T00:28:44.861Z,-1.40
2023-02-08T00:34:26.143Z,-1.50
2023-02-08T00:36:55.787Z,-1.50
2023-02-08T00:39:24.720Z,-1.50
2023-02-08T00:41:53.537Z,-1.50
2023-02-08T00:44:21.950Z,-1.60
2023-02-08T00:46:50.252Z,-1.60
2023-02-08T00:49:19.246Z,-1.60
2023-02-08T00:51:47.691Z,-1.60
2023-02-08T00:54:18.074Z,-1.60
2023-02-08T00:56:46.452Z,-1.70
2023-02-08T00:59:15.504Z,-1.70
2023-02-08T01:01:46.517Z,-1.70
2023-02-08T01:04:14.948Z,-1.70
2023-02-08T01:06:43.254Z,-1.70
2023-02-08T01:09:13.053Z,-1.70
2023-02-08T01:11:42.734Z,-1.70
2023-02-08T01:14:11.254Z,-1.70
2023-02-08T01:16:40.339Z,-1.70
2023-02-08T01:19:08.618Z,-1.80
2023-02-08T01:21:38.625Z,-1.80
2023-02-08T01:24:07.307Z,-1.80
2023-02-08T01:26:36.043Z,-1.80
2023-02-08T01:29:08.554Z,-1.80
2023-02-08T01:31:38.831Z,-1.80
2023-02-08T01:34:08.568Z,-1.70
2023-02-08T01:36:37.947Z,-1.70
2023-02-08T01:39:07.638Z,-1.70
2023-02-08T01:41:38.690Z,-1.70
2023-02-08T01:44:43.607Z,-1.80
2023-02-08T01:47:13.594Z,-1.80
2023-02-08T01:49:42.081Z,-1.80
2023-02-08T01:52:15.244Z,-1.90
2023-02-08T01:54:47.931Z,-1.90
2023-02-08T01:57:16.425Z,-1.90
2023-02-08T01:59:49.087Z,-1.90
2023-02-08T02:02:22.926Z,-1.90
2023-02-08T02:07:39.444Z,-1.90
2023-02-08T02:10:13.218Z,-1.90
2023-02-08T02:12:43.140Z,-2.00
2023-02-08T02:15:12.395Z,-1.90
2023-02-08T02:17:42.463Z,-2.00
2023-02-08T02:20:19.370Z,-2.00
2023-02-08T02:23:21.406Z,-2.00
2023-02-08T02:26:26.798Z,-2.00
2023-02-08T02:29:31.177Z,-2.00
2023-02-08T02:32:20.587Z,-2.00
2023-02-08T02:34:56.759Z,-2.00
2023-02-08T02:37:38.966Z,-2.00
2023-02-08T02:40:17.637Z,-2.00
2023-02-08T02:43:17.636Z,-2.00
2023-02-08T02:45:55.128Z,-2.00
2023-02-08T02:48:32.245Z,-2.00
2023-02-08T02:51:04.125Z,-2.10
2023-02-08T02:53:39.462Z,-2.10
2023-02-08T02:56:13.532Z,-2.10
2023-02-08T02:58:43.804Z,-2.10
2023-02-08T03:01:12.203Z,-2.10
2023-02-08T03:03:42.056Z,-2.10
2023-02-08T03:06:15.885Z,-2.10
2023-02-08T03:08:55.917Z,-2.10
2023-02-08T03:11:28.331Z,-2.10
2023-02-08T03:14:23.438Z,-2.20
2023-02-08T03:17:12.105Z,-2.20
2023-02-08T03:19:48.151Z,-2.20
2023-02-08T03:22:23.135Z,-2.20
2023-02-08T03:24:56.821Z,-2.20
2023-02-08T03:27:32.965Z,-2.20
2023-02-08T03:30:04.326Z,-2.20
2023-02-08T03:32:40.030Z,-2.20
2023-02-08T03:35:16.471Z,-2.30
2023-02-08T03:37:48.248Z,-2.30
2023-02-08T03:40:22.383Z,-2.30
2023-02-08T03:42:54.556Z,-2.30
2023-02-08T03:45:27.952Z,-2.30
2023-02-08T03:48:01.332Z,-2.30
2023-02-08T03:50:37.508Z,-2.30
2023-02-08T03:53:07.790Z,-2.30
2023-02-08T03:55:38.575Z,-2.30
2023-02-08T03:58:12.700Z,-2.30
2023-02-08T04:00:46.238Z,-2.30
2023-02-08T04:03:18.648Z,-2.30
2023-02-08T04:05:48.654Z,-2.30
2023-02-08T04:08:17.018Z,-2.30
2023-02-08T04:10:45.351Z,-2.40
2023-02-08T04:13:14.162Z,-2.40
2023-02-08T04:15:42.487Z,-2.40
2023-02-08T04:18:10.982Z,-2.40
2023-02-08T04:20:39.702Z,-2.40
2023-02-08T04:23:09.804Z,-2.40
2023-02-08T04:25:38.149Z,-2.40
2023-02-08T04:28:06.857Z,-2.50
2023-02-08T04:30:35.592Z,-2.50
2023-02-08T04:33:03.896Z,-2.50
2023-02-08T04:35:32.217Z,-2.50
2023-02-08T04:38:00.702Z,-2.50
2023-02-08T04:40:31.308Z,-2.50
2023-02-08T04:42:59.657Z,-2.40
2023-02-08T04:45:30.055Z,-2.30
2023-02-08T04:47:59.198Z,-2.20
2023-02-08T04:50:27.583Z,-2.20
2023-02-08T04:52:55.971Z,-2.10
2023-02-08T04:55:24.260Z,-2.10
2023-02-08T04:57:54.031Z,-2.10
2023-02-08T05:00:22.308Z,-2.10
2023-02-08T05:02:54.869Z,-2.10
2023-02-08T05:05:23.434Z,-2.10
2023-02-08T05:07:51.759Z,-2.00
2023-02-08T05:10:20.294Z,-2.10
2023-02-08T05:12:48.550Z,-2.10
2023-02-08T05:15:18.321Z,-2.10
2023-02-08T05:17:46.661Z,-2.20
2023-02-08T05:20:15.105Z,-2.20
2023-02-08T05:22:43.635Z,-2.30
2023-02-08T05:25:12.009Z,-2.30
2023-02-08T05:27:40.568Z,-2.30
2023-02-08T05:30:09.986Z,-2.40
2023-02-08T05:32:39.946Z,-2.40
2023-02-08T05:35:08.908Z,-2.50
2023-02-08T05:37:37.247Z,-2.50
2023-02-08T05:40:06.005Z,-2.50
2023-02-08T05:42:34.351Z,-2.60
2023-02-08T05:45:02.525Z,-2.60
2023-02-08T05:47:30.829Z,-2.60
2023-02-08T05:50:00.462Z,-2.60
2023-02-08T05:55:14.948Z,-2.70
2023-02-08T05:57:43.347Z,-2.70
2023-02-08T06:00:13.739Z,-2.70
2023-02-08T06:02:44.731Z,-2.70
2023-02-08T06:05:14.508Z,-2.70
2023-02-08T06:07:42.800Z,-2.70
2023-02-08T06:10:11.667Z,-2.70
2023-02-08T06:12:40.038Z,-2.70
2023-02-08T06:15:08.833Z,-2.70
2023-02-08T06:17:37.301Z,-2.70
2023-02-08T06:20:06.227Z,-2.80
2023-02-08T06:22:37.519Z,-2.80
2023-02-08T06:25:06.686Z,-2.80
2023-02-08T06:27:35.034Z,-2.80
2023-02-08T06:30:03.545Z,-2.80
2023-02-08T06:32:32.049Z,-2.80
2023-02-08T06:35:00.358Z,-2.80
2023-02-08T06:37:28.749Z,-2.80
2023-02-08T06:39:59.217Z,-2.90
2023-02-08T06:42:27.723Z,-2.90
2023-02-08T06:44:58.133Z,-2.80
2023-02-08T06:47:27.736Z,-2.80
2023-02-08T06:49:56.304Z,-2.80
2023-02-08T06:52:24.521Z,-2.80
2023-02-08T06:54:52.926Z,-2.80
2023-02-08T06:57:22.716Z,-2.70
2023-02-08T06:59:51.091Z,-2.70
2023-02-08T07:02:21.645Z,-2.70
2023-02-08T07:04:50.367Z,-2.70
2023-02-08T07:07:19.958Z,-2.70
2023-02-08T07:09:48.263Z,-2.60
2023-02-08T07:12:16.636Z,-2.60
2023-02-08T07:14:46.371Z,-2.50
2023-02-08T07:17:15.037Z,-2.50
2023-02-08T07:19:43.345Z,-2.50
2023-02-08T07:22:11.609Z,-2.50
2023-02-08T07:24:41.336Z,-2.40
2023-02-08T07:27:12.847Z,-2.40
2023-02-08T07:29:41.719Z,-2.40
2023-02-08T07:32:11.835Z,-2.30
2023-02-08T07:34:40.921Z,-2.30
2023-02-08T07:37:09.795Z,-2.20
2023-02-08T07:39:38.225Z,-2.10
2023-02-08T07:42:06.922Z,-1.90
2023-02-08T07:44:42.203Z,-1.80
2023-02-08T07:47:12.083Z,-1.80
2023-02-08T07:49:40.388Z,-1.70
2023-02-08T07:52:08.498Z,-1.60
2023-02-08T07:54:36.850Z,-1.40
2023-02-08T07:57:05.231Z,-1.30
2023-02-08T07:59:33.569Z,-1.20
2023-02-08T08:02:01.937Z,-1.10
2023-02-08T08:04:31.643Z,-0.90
2023-02-08T08:06:59.975Z,-0.60
2023-02-08T08:09:28.486Z,-0.40
2023-02-08T08:11:56.788Z,-0.20
2023-02-08T08:14:25.065Z,0.10
2023-02-08T08:16:53.436Z,0.40
2023-02-08T08:19:21.733Z,0.80
2023-02-08T08:21:51.319Z,1.30
2023-02-08T08:24:19.602Z,1.70
2023-02-08T08:26:47.872Z,2.10
2023-02-08T08:29:16.197Z,2.50
2023-02-08T08:31:44.710Z,2.70
2023-02-08T08:34:13.054Z,2.80
2023-02-08T08:36:41.468Z,3.10
2023-02-08T08:39:11.249Z,3.10
2023-02-08T08:41:39.552Z,3.20
2023-02-08T08:44:07.925Z,3.60
2023-02-08T08:46:36.337Z,4.00
2023-02-08T08:49:04.834Z,4.20
2023-02-08T08:51:35.518Z,4.60
2023-02-08T08:54:03.870Z,4.80
2023-02-08T08:56:34.102Z,5.10
2023-02-08T08:59:02.370Z,5.20
2023-02-08T09:01:33.026Z,5.70
2023-02-08T09:04:02.181Z,6.70
2023-02-08T09:06:30.493Z,7.80
2023-02-08T09:08:58.941Z,9.10
2023-02-08T09:11:27.217Z,10.50
2023-02-08T09:13:56.936Z,11.70
2023-02-08T09:16:26.295Z,12.60
2023-02-08T09:18:54.642Z,13.40
2023-02-08T09:21:25.400Z,14.30
2023-02-08T09:23:53.830Z,15.00
2023-02-08T09:26:22.934Z,15.60
2023-02-08T09:28:51.492Z,16.40
2023-02-08T09:31:23.686Z,15.90
2023-02-08T09:33:53.289Z,16.50
2023-02-08T09:36:23.200Z,16.70
2023-02-08T09:38:57.667Z,17.00
2023-02-08T09:41:39.330Z,16.80
2023-02-08T09:44:18.733Z,17.10
2023-02-08T09:46:56.905Z,16.80
2023-02-08T09:49:30.361Z,17.00
2023-02-08T09:52:01.831Z,16.60
2023-02-08T09:54:34.612Z,17.30
2023-02-08T09:57:07.294Z,18.30
2023-02-08T09:59:36.640Z,17.90
2023-02-08T10:02:27.242Z,18.20
2023-02-08T10:05:01.534Z,18.20
2023-02-08T10:07:30.303Z,18.40
2023-02-08T10:10:02.300Z,18.80
2023-02-08T10:12:48.089Z,19.50
2023-02-08T10:15:27.718Z,19.60
2023-02-08T10:18:24.511Z,20.50
2023-02-08T10:21:06.297Z,21.50
2023-02-08T10:23:50.542Z,22.00
2023-02-08T10:26:31.460Z,22.90
2023-02-08T10:29:22.625Z,22.70
2023-02-08T10:32:08.983Z,23.30
2023-02-08T10:34:45.646Z,24.30
2023-02-08T10:37:17.263Z,25.20
2023-02-08T10:39:46.313Z,25.10
2023-02-08T10:42:17.266Z,25.90
2023-02-08T10:44:56.897Z,27.00
2023-02-08T10:47:40.574Z,27.70
2023-02-08T10:50:19.152Z,28.60
2023-02-08T10:52:47.935Z,29.10
2023-02-08T10:55:17.513Z,28.90
2023-02-08T10:57:49.229Z,29.30
2023-02-08T11:00:22.477Z,29.70
2023-02-08T11:02:52.935Z,29.70
2023-02-08T11:05:33.104Z,30.00
2023-02-08T11:08:10.437Z,30.30
2023-02-08T11:10:40.379Z,30.00
2023-02-08T11:13:18.575Z,29.90
2023-02-08T11:15:49.202Z,30.40
2023-02-08T11:18:23.423Z,30.40
2023-02-08T11:20:56.450Z,30.50
2023-02-08T11:23:28.274Z,31.30
2023-02-08T11:26:14.235Z,32.30
2023-02-08T11:28:43.081Z,32.60
2023-02-08T11:31:18.645Z,33.30
2023-02-08T11:34:02.130Z,33.50
2023-02-08T11:36:34.105Z,33.70
2023-02-08T11:39:04.207Z,33.80
2023-02-08T11:41:33.044Z,31.80
2023-02-08T11:44:04.438Z,31.40
2023-02-08T11:46:35.900Z,31.30
2023-02-08T11:49:04.774Z,31.90
2023-02-08T11:51:36.223Z,31.90
2023-02-08T11:54:05.792Z,32.00
2023-02-08T11:56:35.673Z,32.30
2023-02-08T11:59:07.841Z,33.10
2023-02-08T12:01:38.120Z,33.50
2023-02-08T12:04:09.426Z,33.70
2023-02-08T12:07:15.405Z,33.90
2023-02-08T12:10:15.775Z,33.70
2023-02-08T12:12:56.240Z,34.10
2023-02-08T12:15:34.477Z,33.90
2023-02-08T12:18:21.838Z,34.20
2023-02-08T12:20:57.346Z,33.40
2023-02-08T12:23:48.850Z,32.80
2023-02-08T12:26:24.555Z,32.20
2023-02-08T12:29:18.998Z,31.40
2023-02-08T12:32:04.057Z,31.90
2023-02-08T12:34:48.695Z,31.70
2023-02-08T12:37:46.123Z,30.70
2023-02-08T12:40:45.529Z,29.90
2023-02-08T12:43:22.846Z,30.30
2023-02-08T12:46:08.366Z,30.70
2023-02-08T12:48:57.160Z,30.70
2023-02-08T12:51:35.905Z,31.20
2023-02-08T12:54:10.064Z,31.40
2023-02-08T12:56:53.618Z,31.60
2023-02-08T12:59:34.962Z,29.60
2023-02-08T13:02:10.737Z,29.10
2023-02-08T13:04:43.414Z,28.10
2023-02-08T13:07:15.843Z,28.40
2023-02-08T13:09:51.063Z,27.40
2023-02-08T13:12:25.112Z,27.30
2023-02-08T13:14:55.829Z,25.80
2023-02-08T13:17:27.966Z,24.70
2023-02-08T13:20:02.174Z,25.30
2023-02-08T13:22:35.757Z,25.80
2023-02-08T13:25:08.300Z,26.30
2023-02-08T13:27:38.519Z,25.20
2023-02-08T13:30:08.260Z,25.00
2023-02-08T13:32:44.214Z,24.30
2023-02-08T13:35:17.924Z,23.60
2023-02-08T13:37:52.867Z,23.00
2023-02-08T13:40:28.418Z,22.90
2023-02-08T13:43:02.309Z,22.40
2023-02-08T13:45:34.447Z,21.10
2023-02-08T13:48:04.719Z,20.60
2023-02-08T13:50:46.963Z,20.10
2023-02-08T13:53:17.424Z,20.20
2023-02-08T13:56:08.310Z,19.80
2023-02-08T13:59:01.153Z,20.00
2023-02-08T14:01:30.967Z,20.10
2023-02-08T14:04:32.994Z,19.80
2023-02-08T14:07:06.092Z,19.70
2023-02-08T14:09:47.437Z,19.20
2023-02-08T14:12:24.091Z,18.40
2023-02-08T14:15:29.863Z,17.10
2023-02-08T14:18:00.814Z,16.20
2023-02-08T14:20:36.439Z,15.50
2023-02-08T14:23:07.957Z,15.50
2023-02-08T14:25:46.339Z,15.40
2023-02-08T14:28:30.418Z,15.30
2023-02-08T14:31:01.346Z,14.70
2023-02-08T14:33:33.453Z,13.90
2023-02-08T14:36:05.125Z,13.00
2023-02-08T14:39:05.107Z,12.10
2023-02-08T14:41:57.317Z,11.60
2023-02-08T14:45:02.784Z,10.90
2023-02-08T14:48:08.040Z,10.10
2023-02-08T14:50:49.950Z,9.50
2023-02-08T14:53:30.507Z,9.00
2023-02-08T14:56:04.171Z,8.90
2023-02-08T14:58:35.857Z,8.90
2023-02-08T15:01:08.982Z,8.80
2023-02-08T15:03:37.747Z,8.80
2023-02-08T15:06:35.277Z,8.70
2023-02-08T15:09:04.383Z,8.50
2023-02-08T15:11:34.664Z,8.40
2023-02-08T15:14:06.004Z,8.10
2023-02-08T15:16:37.997Z,7.70
2023-02-08T15:19:08.564Z,7.40
2023-02-08T15:21:39.122Z,7.20
2023-02-08T15:24:17.154Z,7.10
2023-02-08T15:26:46.279Z,6.90
2023-02-08T15:29:30.091Z,6.70
2023-02-08T15:32:04.467Z,6.50
2023-02-08T15:34:34.202Z,6.30
2023-02-08T15:37:04.829Z,6.10
2023-02-08T15:39:38.669Z,6.00
2023-02-08T15:42:15.962Z,5.80
2023-02-08T15:44:45.196Z,5.60
2023-02-08T15:47:19.218Z,5.40
2023-02-08T15:49:50.945Z,5.20
2023-02-08T15:52:23.691Z,5.10
2023-02-08T15:54:52.883Z,5.00
2023-02-08T15:57:30.782Z,4.90
2023-02-08T16:00:00.108Z,4.80
2023-02-08T16:02:31.206Z,4.70
2023-02-08T16:05:00.245Z,4.60
2023-02-08T16:07:35.047Z,4.50
2023-02-08T16:10:04.120Z,4.40
2023-02-08T16:12:32.822Z,4.30
2023-02-08T16:15:01.061Z,4.20
2023-02-08T16:17:43.109Z,4.10
2023-02-08T16:20:29.220Z,4.00
2023-02-08T16:23:02.343Z,3.90
2023-02-08T16:25:44.580Z,3.90
2023-02-08T16:28:27.571Z,3.80
2023-02-08T16:30:57.285Z,3.70
2023-02-08T16:33:26.077Z,3.60
2023-02-08T16:36:01.870Z,3.50
2023-02-08T16:38:34.056Z,3.40
2023-02-08T16:41:13.170Z,3.40
2023-02-08T16:43:44.187Z,3.30
2023-02-08T16:46:21.536Z,3.30
2023-02-08T16:48:51.980Z,3.30
2023-02-08T16:51:23.126Z,3.20
2023-02-08T16:53:55.869Z,3.20
2023-02-08T16:56:25.029Z,3.20
2023-02-08T16:58:53.504Z,3.10
2023-02-08T17:01:23.529Z,3.20
2023-02-08T17:03:53.207Z,3.10
2023-02-08T17:06:30.445Z,3.00
2023-02-08T17:09:01.095Z,3.00
2023-02-08T17:11:29.742Z,3.00
2023-02-08T17:13:58.810Z,2.90
2023-02-08T17:16:29.298Z,2.90
2023-02-08T17:18:58.465Z,2.90
2023-02-08T17:21:27.466Z,2.90
2023-02-08T17:26:45.081Z,2.80
2023-02-08T17:29:14.095Z,2.80
2023-02-08T17:31:42.305Z,2.80
2023-02-08T17:34:10.780Z,2.80
2023-02-08T17:36:41.126Z,2.80
2023-02-08T17:39:12.045Z,2.90
2023-02-08T17:41:42.831Z,2.80
2023-02-08T17:44:13.019Z,2.80
2023-02-08T17:46:41.276Z,2.80
2023-02-08T17:49:09.620Z,2.80
2023-02-08T17:51:38.137Z,2.70
2023-02-08T17:54:06.613Z,2.80
2023-02-08T17:56:36.322Z,2.70
2023-02-08T17:59:06.039Z,2.60
2023-02-08T18:01:35.051Z,2.60
2023-02-08T18:04:03.550Z,2.60
2023-02-08T18:06:31.905Z,2.60
2023-02-08T18:09:00.033Z,2.60
2023-02-08T18:11:28.154Z,2.50
2023-02-08T18:13:56.542Z,2.50
2023-02-08T18:16:28.071Z,2.50
2023-02-08T18:18:57.085Z,2.40
2023-02-08T18:21:26.630Z,2.40
2023-02-08T18:23:56.040Z,2.40
2023-02-08T18:26:25.733Z,2.30
2023-02-08T18:28:54.013Z,2.20
2023-02-08T18:31:22.522Z,2.20
2023-02-08T18:33:52.832Z,2.20
2023-02-08T18:36:22.057Z,2.10
2023-02-08T18:38:52.537Z,2.00
2023-02-08T18:41:23.571Z,1.90
2023-02-08T18:43:53.294Z,1.80
2023-02-08T18:46:22.984Z,1.80
2023-02-08T18:48:53.964Z,1.80
2023-02-08T18:51:23.349Z,1.80
2023-02-08T18:53:54.743Z,1.70
2023-02-08T18:56:25.146Z,1.60
2023-02-08T18:58:54.391Z,1.60
2023-02-08T19:01:24.585Z,1.50
2023-02-08T19:03:54.388Z,1.50
2023-02-08T19:06:25.367Z,1.50
2023-02-08T19:08:55.532Z,1.50
2023-02-08T19:11:25.675Z,1.40
2023-02-08T19:13:54.779Z,1.40
2023-02-08T19:16:24.523Z,1.30
2023-02-08T19:18:56.371Z,1.30
2023-02-08T19:21:25.033Z,1.20
2023-02-08T19:23:54.275Z,1.10
2023-02-08T19:26:24.442Z,1.10
2023-02-08T19:28:54.050Z,1.10
2023-02-08T19:31:23.860Z,1.10
2023-02-08T19:33:58.816Z,1.00
2023-02-08T19:36:29.924Z,1.00
2023-02-08T19:38:58.670Z,1.00
2023-02-08T19:41:29.334Z,0.90
2023-02-08T19:43:57.611Z,0.90
2023-02-08T19:46:27.555Z,0.90
2023-02-08T19:49:00.338Z,0.90
2023-02-08T19:51:30.357Z,0.80
2023-02-08T19:53:58.776Z,0.80
2023-02-08T19:56:27.099Z,0.80
2023-02-08T19:58:55.326Z,0.70
2023-02-08T20:01:24.184Z,0.60
2023-02-08T20:03:55.050Z,0.60
2023-02-08T20:06:25.962Z,0.50
2023-02-08T20:08:54.785Z,0.50
2023-02-08T20:11:24.888Z,0.50
2023-02-08T20:13:53.788Z,0.40
2023-02-08T20:16:23.203Z,0.40
2023-02-08T20:18:52.053Z,0.30
2023-02-08T20:21:20.729Z,0.30
2023-02-08T20:23:51.034Z,0.30
2023-02-08T20:26:21.964Z,0.20
2023-02-08T20:28:52.274Z,0.20
2023-02-08T20:31:22.835Z,0.30
2023-02-08T20:33:52.065Z,0.30
2023-02-08T20:36:22.100Z,0.30
2023-02-08T20:38:53.712Z,0.20
2023-02-08T20:41:22.769Z,0.10
2023-02-08T20:43:51.313Z,0.10
2023-02-08T20:46:23.123Z,0.10
2023-02-08T20:48:52.151Z,0.10
2023-02-08T20:51:22.409Z,0.00
2023-02-08T20:53:52.630Z,-0.10
2023-02-08T20:56:25.480Z,-0.10
2023-02-08T20:58:55.487Z,-0.10
2023-02-08T21:01:25.944Z,0.00
2023-02-08T21:03:54.925Z,-0.10
2023-02-08T21:06:26.614Z,-0.10
2023-02-08T21:08:56.590Z,-0.10
2023-02-08T21:11:27.386Z,-0.10
2023-02-08T21:13:56.323Z,-0.10
2023-02-08T21:16:25.327Z,-0.10
2023-02-08T21:18:54.219Z,-0.20
2023-02-08T21:21:22.396Z,-0.20
2023-02-08T21:23:50.895Z,-0.30
2023-02-08T21:26:22.021Z,-0.30
2023-02-08T21:28:54.124Z,-0.30
2023-02-08T21:31:24.160Z,-0.40
2023-02-08T21:33:53.028Z,-0.40
2023-02-08T21:36:23.207Z,-0.40
2023-02-08T21:38:54.534Z,-0.50
2023-02-08T21:41:26.622Z,-0.50
2023-02-08T21:43:56.916Z,-0.50
2023-02-08T21:46:27.366Z,-0.50
2023-02-08T21:49:13.461Z,-0.50
2023-02-08T21:51:59.347Z,-0.50
2023-02-08T21:54:45.921Z,-0.60
2023-02-08T21:57:18.783Z,-0.60
2023-02-08T21:59:50.058Z,-0.60
2023-02-08T22:02:21.711Z,-0.70
2023-02-08T22:05:08.315Z,-0.60
2023-02-08T22:07:45.211Z,-0.70
2023-02-08T22:10:15.084Z,-0.70
2023-02-08T22:12:44.806Z,-0.70
2023-02-08T22:15:15.621Z,-0.70
2023-02-08T22:17:44.265Z,-0.70
2023-02-08T22:20:13.385Z,-0.80
2023-02-08T22:22:41.574Z,-0.80
2023-02-08T22:25:10.551Z,-0.90
2023-02-08T22:27:42.066Z,-0.90
2023-02-08T22:30:14.947Z,-1.00
2023-02-08T22:32:43.984Z,-1.00
2023-02-08T22:35:13.464Z,-1.10
2023-02-08T22:37:42.353Z,-1.10
2023-02-08T22:40:12.594Z,-1.10
2023-02-08T22:42:40.989Z,-1.20
2023-02-08T22:45:11.470Z,-1.20
2023-02-08T22:47:39.803Z,-1.20
2023-02-08T22:50:08.698Z,-1.20
2023-02-08T22:52:37.276Z,-1.20
2023-02-08T22:55:06.570Z,-1.20
2023-02-08T22:57:36.423Z,-1.20
2023-02-08T23:00:06.074Z,-1.20
2023-02-08T23:02:35.647Z,-1.20
2023-02-08T23:05:03.819Z,-1.20
2023-02-08T23:07:32.353Z,-1.10
2023-02-08T23:10:00.523Z,-1.20
2023-02-08T23:12:28.878Z,-1.20
2023-02-08T23:14:57.166Z,-1.20
2023-02-08T23:17:25.434Z,-1.20
2023-02-08T23:19:54.929Z,-1.20
2023-02-08T23:22:23.474Z,-1.10
2023-02-08T23:24:51.558Z,-1.20
2023-02-08T23:27:19.847Z,-1.20
2023-02-08T23:29:48.187Z,-1.20
2023-02-08T23:32:16.394Z,-1.20
2023-02-08T23:34:44.506Z,-1.20
2023-02-08T23:37:14.403Z,-1.20
2023-02-08T23:39:42.556Z,-1.20
2023-02-08T23:42:25.534Z,-1.20
2023-02-08T23:44:53.851Z,-1.20
2023-02-08T23:47:22.889Z,-1.20
2023-02-08T23:49:51.944Z,-1.20
2023-02-08T23:52:21.940Z,-1.20
2023-02-08T23:54:50.452Z,-1.30
2023-02-08T23:57:18.839Z,-1.30
2023-02-08T23:59:46.982Z,-1.30
